sensor_id;sensor_type;location;lat;lon;timestamp;P1;durP1;ratioP1;P2;durP2;ratioP2
38783;SDS011;24531;45.502;12.238;2023-04-16T00:00:49;3.22;;;1.60;;
38783;SDS011;24531;45.502;12.238;2023-04-16T00:03:15;3.60;;;1.70;;
38783;SDS011;24531;45.502;12.238;2023-04-16T00:05:40;1.92;;;1.35;;
38783;SDS011;24531;45.502;12.238;2023-04-16T00:08:06;2.75;;;1.42;;
38783;SDS011;24531;45.502;12.238;2023-04-16T00:10:33;3.88;;;1.25;;
38783;SDS011;24531;45.502;12.238;2023-04-16T00:12:59;2.42;;;1.52;;
38783;SDS011;24531;45.502;12.238;2023-04-16T00:15:25;1.98;;;1.35;;
38783;SDS011;24531;45.502;12.238;2023-04-16T00:17:50;3.50;;;1.40;;
38783;SDS011;24531;45.502;12.238;2023-04-16T00:20:16;4.72;;;1.70;;
38783;SDS011;24531;45.502;12.238;2023-04-16T00:22:42;2.15;;;1.50;;
38783;SDS011;24531;45.502;12.238;2023-04-16T00:25:07;2.63;;;1.55;;
38783;SDS011;24531;45.502;12.238;2023-04-16T00:27:33;2.15;;;1.70;;
38783;SDS011;24531;45.502;12.238;2023-04-16T00:29:58;2.72;;;2.10;;
38783;SDS011;24531;45.502;12.238;2023-04-16T00:32:24;2.90;;;1.73;;
38783;SDS011;24531;45.502;12.238;2023-04-16T00:34:50;4.85;;;1.77;;
38783;SDS011;24531;45.502;12.238;2023-04-16T00:37:15;6.10;;;1.83;;
38783;SDS011;24531;45.502;12.238;2023-04-16T00:39:41;3.50;;;1.88;;
38783;SDS011;24531;45.502;12.238;2023-04-16T00:42:06;2.72;;;1.55;;
38783;SDS011;24531;45.502;12.238;2023-04-16T00:44:32;2.35;;;1.27;;
38783;SDS011;24531;45.502;12.238;2023-04-16T00:47:00;2.83;;;1.40;;
38783;SDS011;24531;45.502;12.238;2023-04-16T00:49:26;3.38;;;1.52;;
38783;SDS011;24531;45.502;12.238;2023-04-16T00:51:53;2.05;;;1.52;;
38783;SDS011;24531;45.502;12.238;2023-04-16T00:54:19;2.35;;;1.58;;
38783;SDS011;24531;45.502;12.238;2023-04-16T00:56:45;2.40;;;1.70;;
38783;SDS011;24531;45.502;12.238;2023-04-16T00:59:11;4.20;;;2.42;;
38783;SDS011;24531;45.502;12.238;2023-04-16T01:01:37;5.50;;;2.20;;
38783;SDS011;24531;45.502;12.238;2023-04-16T01:04:02;4.28;;;1.52;;
38783;SDS011;24531;45.502;12.238;2023-04-16T01:06:28;5.85;;;2.08;;
38783;SDS011;24531;45.502;12.238;2023-04-16T01:08:54;5.05;;;2.10;;
38783;SDS011;24531;45.502;12.238;2023-04-16T01:11:20;4.40;;;2.28;;
38783;SDS011;24531;45.502;12.238;2023-04-16T01:13:45;3.17;;;2.03;;
38783;SDS011;24531;45.502;12.238;2023-04-16T01:16:11;4.32;;;1.70;;
38783;SDS011;24531;45.502;12.238;2023-04-16T01:18:37;4.03;;;1.92;;
38783;SDS011;24531;45.502;12.238;2023-04-16T01:21:03;4.65;;;2.20;;
38783;SDS011;24531;45.502;12.238;2023-04-16T01:23:29;4.03;;;1.85;;
38783;SDS011;24531;45.502;12.238;2023-04-16T01:25:55;5.43;;;1.83;;
38783;SDS011;24531;45.502;12.238;2023-04-16T01:28:20;5.22;;;2.25;;
38783;SDS011;24531;45.502;12.238;2023-04-16T01:30:46;5.63;;;1.95;;
38783;SDS011;24531;45.502;12.238;2023-04-16T01:33:12;3.65;;;2.03;;
38783;SDS011;24531;45.502;12.238;2023-04-16T01:35:39;4.53;;;2.00;;
38783;SDS011;24531;45.502;12.238;2023-04-16T01:38:05;3.33;;;1.73;;
38783;SDS011;24531;45.502;12.238;2023-04-16T01:40:32;2.60;;;1.80;;
38783;SDS011;24531;45.502;12.238;2023-04-16T01:42:59;2.70;;;2.05;;
38783;SDS011;24531;45.502;12.238;2023-04-16T01:45:24;3.88;;;2.00;;
38783;SDS011;24531;45.502;12.238;2023-04-16T01:47:50;3.90;;;2.13;;
38783;SDS011;24531;45.502;12.238;2023-04-16T01:50:16;3.72;;;1.92;;
38783;SDS011;24531;45.502;12.238;2023-04-16T01:52:45;3.10;;;2.47;;
38783;SDS011;24531;45.502;12.238;2023-04-16T01:55:11;7.43;;;1.90;;
38783;SDS011;24531;45.502;12.238;2023-04-16T01:57:37;4.57;;;2.20;;
38783;SDS011;24531;45.502;12.238;2023-04-16T02:00:03;3.80;;;2.33;;
38783;SDS011;24531;45.502;12.238;2023-04-16T02:02:29;4.65;;;2.42;;
38783;SDS011;24531;45.502;12.238;2023-04-16T02:04:55;3.95;;;2.20;;
38783;SDS011;24531;45.502;12.238;2023-04-16T02:07:22;4.85;;;2.47;;
38783;SDS011;24531;45.502;12.238;2023-04-16T02:09:48;3.15;;;2.40;;
38783;SDS011;24531;45.502;12.238;2023-04-16T02:12:15;3.15;;;2.25;;
38783;SDS011;24531;45.502;12.238;2023-04-16T02:14:41;7.18;;;2.55;;
38783;SDS011;24531;45.502;12.238;2023-04-16T02:17:07;5.53;;;2.30;;
38783;SDS011;24531;45.502;12.238;2023-04-16T02:19:32;3.53;;;2.60;;
38783;SDS011;24531;45.502;12.238;2023-04-16T02:21:58;5.28;;;2.40;;
38783;SDS011;24531;45.502;12.238;2023-04-16T02:24:25;3.20;;;2.72;;
38783;SDS011;24531;45.502;12.238;2023-04-16T02:26:51;3.08;;;2.13;;
38783;SDS011;24531;45.502;12.238;2023-04-16T02:29:17;4.65;;;3.33;;
38783;SDS011;24531;45.502;12.238;2023-04-16T02:31:43;6.88;;;2.47;;
38783;SDS011;24531;45.502;12.238;2023-04-16T02:34:09;5.85;;;2.95;;
38783;SDS011;24531;45.502;12.238;2023-04-16T02:36:35;3.22;;;2.22;;
38783;SDS011;24531;45.502;12.238;2023-04-16T02:39:00;4.22;;;2.97;;
38783;SDS011;24531;45.502;12.238;2023-04-16T02:41:26;5.35;;;3.38;;
38783;SDS011;24531;45.502;12.238;2023-04-16T02:43:51;4.10;;;2.95;;
38783;SDS011;24531;45.502;12.238;2023-04-16T02:46:17;3.97;;;3.00;;
38783;SDS011;24531;45.502;12.238;2023-04-16T02:48:45;4.28;;;2.90;;
38783;SDS011;24531;45.502;12.238;2023-04-16T02:51:14;6.32;;;2.67;;
38783;SDS011;24531;45.502;12.238;2023-04-16T02:53:42;3.33;;;2.60;;
38783;SDS011;24531;45.502;12.238;2023-04-16T02:56:10;3.92;;;3.38;;
38783;SDS011;24531;45.502;12.238;2023-04-16T02:58:36;4.90;;;3.47;;
38783;SDS011;24531;45.502;12.238;2023-04-16T03:01:01;9.90;;;3.10;;
38783;SDS011;24531;45.502;12.238;2023-04-16T03:03:27;3.97;;;3.28;;
38783;SDS011;24531;45.502;12.238;2023-04-16T03:05:52;5.90;;;3.13;;
38783;SDS011;24531;45.502;12.238;2023-04-16T03:08:18;5.72;;;2.90;;
38783;SDS011;24531;45.502;12.238;2023-04-16T03:10:43;4.10;;;3.45;;
38783;SDS011;24531;45.502;12.238;2023-04-16T03:13:09;5.28;;;3.08;;
38783;SDS011;24531;45.502;12.238;2023-04-16T03:15:35;4.38;;;3.10;;
38783;SDS011;24531;45.502;12.238;2023-04-16T03:18:01;3.90;;;2.92;;
38783;SDS011;24531;45.502;12.238;2023-04-16T03:20:27;5.30;;;3.47;;
38783;SDS011;24531;45.502;12.238;2023-04-16T03:22:52;5.30;;;3.47;;
38783;SDS011;24531;45.502;12.238;2023-04-16T03:25:18;5.40;;;3.30;;
38783;SDS011;24531;45.502;12.238;2023-04-16T03:27:44;6.47;;;3.42;;
38783;SDS011;24531;45.502;12.238;2023-04-16T03:30:10;4.10;;;3.45;;
38783;SDS011;24531;45.502;12.238;2023-04-16T03:32:36;5.03;;;3.10;;
38783;SDS011;24531;45.502;12.238;2023-04-16T03:35:03;5.03;;;3.65;;
38783;SDS011;24531;45.502;12.238;2023-04-16T03:37:32;3.45;;;2.88;;
38783;SDS011;24531;45.502;12.238;2023-04-16T03:39:58;3.90;;;2.72;;
38783;SDS011;24531;45.502;12.238;2023-04-16T03:42:24;5.75;;;3.50;;
38783;SDS011;24531;45.502;12.238;2023-04-16T03:44:49;4.05;;;3.10;;
38783;SDS011;24531;45.502;12.238;2023-04-16T03:47:17;6.00;;;3.08;;
38783;SDS011;24531;45.502;12.238;2023-04-16T03:49:42;3.22;;;2.75;;
38783;SDS011;24531;45.502;12.238;2023-04-16T03:52:08;5.78;;;2.97;;
38783;SDS011;24531;45.502;12.238;2023-04-16T03:54:35;5.70;;;2.90;;
38783;SDS011;24531;45.502;12.238;2023-04-16T03:57:00;5.10;;;3.33;;
38783;SDS011;24531;45.502;12.238;2023-04-16T03:59:26;4.57;;;2.35;;
38783;SDS011;24531;45.502;12.238;2023-04-16T04:01:51;3.15;;;2.60;;
38783;SDS011;24531;45.502;12.238;2023-04-16T04:04:17;4.28;;;3.38;;
38783;SDS011;24531;45.502;12.238;2023-04-16T04:06:44;3.88;;;2.60;;
38783;SDS011;24531;45.502;12.238;2023-04-16T04:09:10;3.38;;;2.80;;
38783;SDS011;24531;45.502;12.238;2023-04-16T04:11:36;5.05;;;2.72;;
38783;SDS011;24531;45.502;12.238;2023-04-16T04:14:01;3.63;;;2.72;;
38783;SDS011;24531;45.502;12.238;2023-04-16T04:16:29;4.40;;;2.80;;
38783;SDS011;24531;45.502;12.238;2023-04-16T04:18:55;3.42;;;2.45;;
38783;SDS011;24531;45.502;12.238;2023-04-16T04:21:21;4.38;;;2.65;;
38783;SDS011;24531;45.502;12.238;2023-04-16T04:23:46;7.32;;;3.53;;
38783;SDS011;24531;45.502;12.238;2023-04-16T04:26:12;3.17;;;2.50;;
38783;SDS011;24531;45.502;12.238;2023-04-16T04:28:38;3.80;;;2.72;;
38783;SDS011;24531;45.502;12.238;2023-04-16T04:31:03;4.88;;;2.25;;
38783;SDS011;24531;45.502;12.238;2023-04-16T04:33:29;4.80;;;2.47;;
38783;SDS011;24531;45.502;12.238;2023-04-16T04:35:55;4.50;;;2.50;;
38783;SDS011;24531;45.502;12.238;2023-04-16T04:38:21;3.85;;;2.50;;
38783;SDS011;24531;45.502;12.238;2023-04-16T04:40:49;3.50;;;2.83;;
38783;SDS011;24531;45.502;12.238;2023-04-16T04:43:16;4.38;;;2.60;;
38783;SDS011;24531;45.502;12.238;2023-04-16T04:45:42;5.90;;;3.00;;
38783;SDS011;24531;45.502;12.238;2023-04-16T04:48:07;3.95;;;2.45;;
38783;SDS011;24531;45.502;12.238;2023-04-16T04:50:33;5.07;;;2.83;;
38783;SDS011;24531;45.502;12.238;2023-04-16T04:53:00;5.15;;;2.83;;
38783;SDS011;24531;45.502;12.238;2023-04-16T04:55:25;3.85;;;2.60;;
38783;SDS011;24531;45.502;12.238;2023-04-16T04:57:51;5.65;;;2.75;;
38783;SDS011;24531;45.502;12.238;2023-04-16T05:00:16;5.45;;;3.08;;
38783;SDS011;24531;45.502;12.238;2023-04-16T05:02:42;4.75;;;3.38;;
38783;SDS011;24531;45.502;12.238;2023-04-16T05:05:08;4.15;;;2.85;;
38783;SDS011;24531;45.502;12.238;2023-04-16T05:07:33;4.43;;;3.08;;
38783;SDS011;24531;45.502;12.238;2023-04-16T05:09:59;4.82;;;3.35;;
38783;SDS011;24531;45.502;12.238;2023-04-16T05:12:25;4.72;;;3.17;;
38783;SDS011;24531;45.502;12.238;2023-04-16T05:14:51;8.10;;;3.53;;
38783;SDS011;24531;45.502;12.238;2023-04-16T05:17:16;4.65;;;2.92;;
38783;SDS011;24531;45.502;12.238;2023-04-16T05:19:42;6.43;;;3.00;;
38783;SDS011;24531;45.502;12.238;2023-04-16T05:22:07;5.20;;;3.60;;
38783;SDS011;24531;45.502;12.238;2023-04-16T05:24:33;4.03;;;2.67;;
38783;SDS011;24531;45.502;12.238;2023-04-16T05:26:59;3.00;;;2.50;;
38783;SDS011;24531;45.502;12.238;2023-04-16T05:29:25;4.88;;;2.63;;
38783;SDS011;24531;45.502;12.238;2023-04-16T05:31:51;4.90;;;3.05;;
38783;SDS011;24531;45.502;12.238;2023-04-16T05:34:17;3.55;;;2.70;;
38783;SDS011;24531;45.502;12.238;2023-04-16T05:36:42;4.75;;;2.80;;
38783;SDS011;24531;45.502;12.238;2023-04-16T05:39:08;9.48;;;3.45;;
38783;SDS011;24531;45.502;12.238;2023-04-16T05:41:34;4.10;;;3.03;;
38783;SDS011;24531;45.502;12.238;2023-04-16T05:44:00;5.18;;;3.10;;
38783;SDS011;24531;45.502;12.238;2023-04-16T05:46:25;6.20;;;2.78;;
38783;SDS011;24531;45.502;12.238;2023-04-16T05:48:51;6.55;;;2.90;;
38783;SDS011;24531;45.502;12.238;2023-04-16T05:51:16;3.20;;;2.83;;
38783;SDS011;24531;45.502;12.238;2023-04-16T05:53:42;4.13;;;3.05;;
38783;SDS011;24531;45.502;12.238;2023-04-16T05:56:08;6.65;;;2.83;;
38783;SDS011;24531;45.502;12.238;2023-04-16T05:58:33;4.40;;;2.60;;
38783;SDS011;24531;45.502;12.238;2023-04-16T06:00:59;3.72;;;2.40;;
38783;SDS011;24531;45.502;12.238;2023-04-16T06:03:26;4.40;;;2.60;;
38783;SDS011;24531;45.502;12.238;2023-04-16T06:05:52;5.68;;;2.88;;
38783;SDS011;24531;45.502;12.238;2023-04-16T06:08:17;6.00;;;2.88;;
38783;SDS011;24531;45.502;12.238;2023-04-16T06:10:46;3.17;;;2.45;;
38783;SDS011;24531;45.502;12.238;2023-04-16T06:13:11;4.00;;;2.47;;
38783;SDS011;24531;45.502;12.238;2023-04-16T06:15:37;4.80;;;2.05;;
38783;SDS011;24531;45.502;12.238;2023-04-16T06:18:03;4.00;;;2.17;;
38783;SDS011;24531;45.502;12.238;2023-04-16T06:20:29;4.57;;;2.45;;
38783;SDS011;24531;45.502;12.238;2023-04-16T06:22:55;3.42;;;2.00;;
38783;SDS011;24531;45.502;12.238;2023-04-16T06:25:21;2.40;;;1.77;;
38783;SDS011;24531;45.502;12.238;2023-04-16T06:27:46;2.55;;;2.35;;
38783;SDS011;24531;45.502;12.238;2023-04-16T06:30:13;2.55;;;1.90;;
38783;SDS011;24531;45.502;12.238;2023-04-16T06:32:39;2.45;;;2.25;;
38783;SDS011;24531;45.502;12.238;2023-04-16T06:35:06;4.82;;;1.77;;
38783;SDS011;24531;45.502;12.238;2023-04-16T06:37:32;2.45;;;1.60;;
38783;SDS011;24531;45.502;12.238;2023-04-16T06:39:57;5.93;;;1.70;;
38783;SDS011;24531;45.502;12.238;2023-04-16T06:42:23;1.88;;;1.40;;
38783;SDS011;24531;45.502;12.238;2023-04-16T06:44:49;2.53;;;1.63;;
38783;SDS011;24531;45.502;12.238;2023-04-16T06:47:14;1.92;;;1.23;;
38783;SDS011;24531;45.502;12.238;2023-04-16T06:49:40;1.73;;;1.15;;
38783;SDS011;24531;45.502;12.238;2023-04-16T06:52:06;5.78;;;1.98;;
38783;SDS011;24531;45.502;12.238;2023-04-16T06:54:32;2.95;;;1.40;;
38783;SDS011;24531;45.502;12.238;2023-04-16T06:56:57;3.30;;;1.70;;
38783;SDS011;24531;45.502;12.238;2023-04-16T06:59:23;1.90;;;1.17;;
38783;SDS011;24531;45.502;12.238;2023-04-16T07:01:48;5.38;;;1.67;;
38783;SDS011;24531;45.502;12.238;2023-04-16T07:04:15;3.55;;;1.67;;
38783;SDS011;24531;45.502;12.238;2023-04-16T07:06:42;3.60;;;1.40;;
38783;SDS011;24531;45.502;12.238;2023-04-16T07:09:07;4.18;;;1.55;;
38783;SDS011;24531;45.502;12.238;2023-04-16T07:11:33;3.85;;;1.60;;
38783;SDS011;24531;45.502;12.238;2023-04-16T07:13:59;2.22;;;1.30;;
38783;SDS011;24531;45.502;12.238;2023-04-16T07:16:25;3.88;;;1.17;;
38783;SDS011;24531;45.502;12.238;2023-04-16T07:18:50;2.03;;;1.50;;
38783;SDS011;24531;45.502;12.238;2023-04-16T07:21:16;2.50;;;1.33;;
38783;SDS011;24531;45.502;12.238;2023-04-16T07:23:42;1.98;;;1.30;;
38783;SDS011;24531;45.502;12.238;2023-04-16T07:26:07;2.90;;;1.75;;
38783;SDS011;24531;45.502;12.238;2023-04-16T07:28:33;2.58;;;1.10;;
38783;SDS011;24531;45.502;12.238;2023-04-16T07:30:59;0.98;;;0.88;;
38783;SDS011;24531;45.502;12.238;2023-04-16T07:33:24;2.08;;;1.52;;
38783;SDS011;24531;45.502;12.238;2023-04-16T07:35:50;2.45;;;0.90;;
38783;SDS011;24531;45.502;12.238;2023-04-16T07:38:16;1.42;;;0.75;;
38783;SDS011;24531;45.502;12.238;2023-04-16T07:40:41;1.52;;;0.75;;
38783;SDS011;24531;45.502;12.238;2023-04-16T07:43:07;2.35;;;0.90;;
38783;SDS011;24531;45.502;12.238;2023-04-16T07:45:33;1.67;;;0.70;;
38783;SDS011;24531;45.502;12.238;2023-04-16T07:47:59;1.30;;;0.65;;
38783;SDS011;24531;45.502;12.238;2023-04-16T07:50:25;0.93;;;0.60;;
38783;SDS011;24531;45.502;12.238;2023-04-16T07:52:50;0.50;;;0.40;;
38783;SDS011;24531;45.502;12.238;2023-04-16T07:55:16;1.00;;;0.60;;
38783;SDS011;24531;45.502;12.238;2023-04-16T07:57:42;0.93;;;0.52;;
38783;SDS011;24531;45.502;12.238;2023-04-16T08:00:07;0.90;;;0.70;;
38783;SDS011;24531;45.502;12.238;2023-04-16T08:02:34;0.82;;;0.45;;
38783;SDS011;24531;45.502;12.238;2023-04-16T08:05:00;2.03;;;0.60;;
38783;SDS011;24531;45.502;12.238;2023-04-16T08:07:25;0.57;;;0.57;;
38783;SDS011;24531;45.502;12.238;2023-04-16T08:09:51;0.55;;;0.45;;
38783;SDS011;24531;45.502;12.238;2023-04-16T08:12:17;0.75;;;0.50;;
38783;SDS011;24531;45.502;12.238;2023-04-16T08:14:43;0.70;;;0.60;;
38783;SDS011;24531;45.502;12.238;2023-04-16T08:17:12;2.53;;;0.60;;
38783;SDS011;24531;45.502;12.238;2023-04-16T08:19:38;1.02;;;0.50;;
38783;SDS011;24531;45.502;12.238;2023-04-16T08:22:04;0.90;;;0.45;;
38783;SDS011;24531;45.502;12.238;2023-04-16T08:24:30;0.30;;;0.30;;
38783;SDS011;24531;45.502;12.238;2023-04-16T08:26:56;1.10;;;0.50;;
38783;SDS011;24531;45.502;12.238;2023-04-16T08:29:21;0.88;;;0.40;;
38783;SDS011;24531;45.502;12.238;2023-04-16T08:31:50;0.65;;;0.40;;
38783;SDS011;24531;45.502;12.238;2023-04-16T08:34:16;2.15;;;0.68;;
38783;SDS011;24531;45.502;12.238;2023-04-16T08:36:42;1.05;;;0.60;;
38783;SDS011;24531;45.502;12.238;2023-04-16T08:39:08;1.60;;;0.52;;
38783;SDS011;24531;45.502;12.238;2023-04-16T08:41:33;0.85;;;0.57;;
38783;SDS011;24531;45.502;12.238;2023-04-16T08:44:47;2.83;;;0.60;;
38783;SDS011;24531;45.502;12.238;2023-04-16T08:46:52;1.05;;;0.57;;
38783;SDS011;24531;45.502;12.238;2023-04-16T08:49:23;1.10;;;0.50;;
38783;SDS011;24531;45.502;12.238;2023-04-16T08:51:50;0.73;;;0.60;;
38783;SDS011;24531;45.502;12.238;2023-04-16T08:54:41;1.30;;;0.50;;
38783;SDS011;24531;45.502;12.238;2023-04-16T08:57:10;1.48;;;0.70;;
38783;SDS011;24531;45.502;12.238;2023-04-16T08:59:39;2.45;;;0.65;;
38783;SDS011;24531;45.502;12.238;2023-04-16T09:02:06;0.98;;;0.70;;
38783;SDS011;24531;45.502;12.238;2023-04-16T09:04:33;0.90;;;0.68;;
38783;SDS011;24531;45.502;12.238;2023-04-16T09:07:01;0.40;;;0.30;;
38783;SDS011;24531;45.502;12.238;2023-04-16T09:09:29;1.38;;;0.73;;
38783;SDS011;24531;45.502;12.238;2023-04-16T09:11:55;0.40;;;0.35;;
38783;SDS011;24531;45.502;12.238;2023-04-16T09:14:21;0.65;;;0.63;;
38783;SDS011;24531;45.502;12.238;2023-04-16T09:16:46;0.70;;;0.63;;
38783;SDS011;24531;45.502;12.238;2023-04-16T09:19:13;1.25;;;0.50;;
38783;SDS011;24531;45.502;12.238;2023-04-16T09:21:40;1.00;;;0.77;;
38783;SDS011;24531;45.502;12.238;2023-04-16T09:24:07;3.75;;;0.95;;
38783;SDS011;24531;45.502;12.238;2023-04-16T09:26:34;0.55;;;0.47;;
38783;SDS011;24531;45.502;12.238;2023-04-16T09:29:00;0.60;;;0.60;;
38783;SDS011;24531;45.502;12.238;2023-04-16T09:31:25;0.50;;;0.50;;
38783;SDS011;24531;45.502;12.238;2023-04-16T09:36:33;2.58;;;0.90;;
38783;SDS011;24531;45.502;12.238;2023-04-16T09:38:59;2.17;;;0.80;;
38783;SDS011;24531;45.502;12.238;2023-04-16T09:41:26;0.65;;;0.57;;
38783;SDS011;24531;45.502;12.238;2023-04-16T09:43:54;0.80;;;0.80;;
38783;SDS011;24531;45.502;12.238;2023-04-16T09:46:29;1.08;;;0.80;;
38783;SDS011;24531;45.502;12.238;2023-04-16T09:48:56;1.15;;;0.73;;
38783;SDS011;24531;45.502;12.238;2023-04-16T09:51:22;1.42;;;0.70;;
38783;SDS011;24531;45.502;12.238;2023-04-16T09:53:55;6.03;;;1.02;;
38783;SDS011;24531;45.502;12.238;2023-04-16T09:56:24;1.90;;;0.70;;
38783;SDS011;24531;45.502;12.238;2023-04-16T09:59:00;0.60;;;0.52;;
38783;SDS011;24531;45.502;12.238;2023-04-16T10:01:26;0.70;;;0.70;;
38783;SDS011;24531;45.502;12.238;2023-04-16T10:03:52;1.52;;;0.60;;
38783;SDS011;24531;45.502;12.238;2023-04-16T10:06:20;2.65;;;0.65;;
38783;SDS011;24531;45.502;12.238;2023-04-16T10:08:51;1.73;;;0.80;;
38783;SDS011;24531;45.502;12.238;2023-04-16T10:11:20;2.08;;;0.70;;
38783;SDS011;24531;45.502;12.238;2023-04-16T10:13:46;0.50;;;0.50;;
38783;SDS011;24531;45.502;12.238;2023-04-16T10:16:12;1.23;;;0.70;;
38783;SDS011;24531;45.502;12.238;2023-04-16T10:18:39;1.20;;;0.70;;
38783;SDS011;24531;45.502;12.238;2023-04-16T10:21:06;1.23;;;0.60;;
38783;SDS011;24531;45.502;12.238;2023-04-16T10:23:32;0.88;;;0.70;;
38783;SDS011;24531;45.502;12.238;2023-04-16T10:25:59;0.95;;;0.82;;
38783;SDS011;24531;45.502;12.238;2023-04-16T10:28:25;0.95;;;0.85;;
38783;SDS011;24531;45.502;12.238;2023-04-16T10:30:53;1.88;;;0.85;;
38783;SDS011;24531;45.502;12.238;2023-04-16T10:33:27;2.58;;;1.95;;
38783;SDS011;24531;45.502;12.238;2023-04-16T10:38:38;0.77;;;0.63;;
38783;SDS011;24531;45.502;12.238;2023-04-16T10:41:11;1.00;;;0.80;;
38783;SDS011;24531;45.502;12.238;2023-04-16T10:43:41;0.98;;;0.57;;
38783;SDS011;24531;45.502;12.238;2023-04-16T10:46:18;0.65;;;0.63;;
38783;SDS011;24531;45.502;12.238;2023-04-16T10:48:49;0.57;;;0.50;;
38783;SDS011;24531;45.502;12.238;2023-04-16T10:51:30;0.73;;;0.52;;
38783;SDS011;24531;45.502;12.238;2023-04-16T10:54:20;2.72;;;0.80;;
38783;SDS011;24531;45.502;12.238;2023-04-16T10:56:49;1.15;;;0.70;;
38783;SDS011;24531;45.502;12.238;2023-04-16T10:59:19;0.40;;;0.40;;
38783;SDS011;24531;45.502;12.238;2023-04-16T11:01:47;0.30;;;0.30;;
38783;SDS011;24531;45.502;12.238;2023-04-16T11:06:59;4.18;;;0.50;;
38783;SDS011;24531;45.502;12.238;2023-04-16T11:14:47;0.52;;;0.47;;
38783;SDS011;24531;45.502;12.238;2023-04-16T11:17:37;1.55;;;0.40;;
38783;SDS011;24531;45.502;12.238;2023-04-16T11:20:15;2.42;;;0.40;;
38783;SDS011;24531;45.502;12.238;2023-04-16T11:22:45;0.30;;;0.30;;
38783;SDS011;24531;45.502;12.238;2023-04-16T11:25:18;1.38;;;0.88;;
38783;SDS011;24531;45.502;12.238;2023-04-16T11:27:48;0.60;;;0.60;;
38783;SDS011;24531;45.502;12.238;2023-04-16T11:30:15;0.80;;;0.50;;
38783;SDS011;24531;45.502;12.238;2023-04-16T11:32:42;1.55;;;0.85;;
38783;SDS011;24531;45.502;12.238;2023-04-16T11:35:15;2.97;;;0.70;;
38783;SDS011;24531;45.502;12.238;2023-04-16T11:37:42;0.50;;;0.40;;
38783;SDS011;24531;45.502;12.238;2023-04-16T11:40:08;0.73;;;0.40;;
38783;SDS011;24531;45.502;12.238;2023-04-16T11:42:35;1.00;;;0.73;;
38783;SDS011;24531;45.502;12.238;2023-04-16T11:45:02;1.15;;;0.60;;
38783;SDS011;24531;45.502;12.238;2023-04-16T11:47:29;0.47;;;0.45;;
38783;SDS011;24531;45.502;12.238;2023-04-16T11:49:55;1.08;;;0.95;;
38783;SDS011;24531;45.502;12.238;2023-04-16T11:52:39;0.73;;;0.68;;
38783;SDS011;24531;45.502;12.238;2023-04-16T11:55:05;0.90;;;0.80;;
38783;SDS011;24531;45.502;12.238;2023-04-16T11:57:31;0.98;;;0.73;;
38783;SDS011;24531;45.502;12.238;2023-04-16T11:59:57;3.42;;;0.93;;
38783;SDS011;24531;45.502;12.238;2023-04-16T12:04:59;1.45;;;0.80;;
38783;SDS011;24531;45.502;12.238;2023-04-16T12:07:25;0.70;;;0.40;;
38783;SDS011;24531;45.502;12.238;2023-04-16T12:09:57;0.88;;;0.47;;
38783;SDS011;24531;45.502;12.238;2023-04-16T12:12:31;1.15;;;0.60;;
38783;SDS011;24531;45.502;12.238;2023-04-16T12:14:57;1.17;;;0.80;;
38783;SDS011;24531;45.502;12.238;2023-04-16T12:17:27;1.00;;;0.60;;
38783;SDS011;24531;45.502;12.238;2023-04-16T12:19:57;1.80;;;1.00;;
38783;SDS011;24531;45.502;12.238;2023-04-16T12:22:36;1.40;;;0.70;;
38783;SDS011;24531;45.502;12.238;2023-04-16T12:30:25;0.55;;;0.45;;
38783;SDS011;24531;45.502;12.238;2023-04-16T12:35:40;0.90;;;0.60;;
38783;SDS011;24531;45.502;12.238;2023-04-16T12:38:07;0.32;;;0.30;;
38783;SDS011;24531;45.502;12.238;2023-04-16T12:40:33;0.60;;;0.45;;
38783;SDS011;24531;45.502;12.238;2023-04-16T12:43:02;1.00;;;0.60;;
38783;SDS011;24531;45.502;12.238;2023-04-16T12:45:28;2.75;;;0.52;;
38783;SDS011;24531;45.502;12.238;2023-04-16T12:47:54;2.47;;;0.40;;
38783;SDS011;24531;45.502;12.238;2023-04-16T12:50:20;1.38;;;0.85;;
38783;SDS011;24531;45.502;12.238;2023-04-16T12:52:46;0.50;;;0.50;;
38783;SDS011;24531;45.502;12.238;2023-04-16T12:55:12;0.77;;;0.63;;
38783;SDS011;24531;45.502;12.238;2023-04-16T12:57:38;0.98;;;0.57;;
38783;SDS011;24531;45.502;12.238;2023-04-16T13:00:04;1.10;;;0.52;;
38783;SDS011;24531;45.502;12.238;2023-04-16T13:02:31;0.80;;;0.50;;
38783;SDS011;24531;45.502;12.238;2023-04-16T13:04:56;1.40;;;0.73;;
38783;SDS011;24531;45.502;12.238;2023-04-16T13:07:22;2.53;;;0.73;;
38783;SDS011;24531;45.502;12.238;2023-04-16T13:09:50;0.65;;;0.55;;
38783;SDS011;24531;45.502;12.238;2023-04-16T13:12:16;0.20;;;0.20;;
38783;SDS011;24531;45.502;12.238;2023-04-16T13:14:42;1.67;;;0.50;;
38783;SDS011;24531;45.502;12.238;2023-04-16T13:17:07;0.73;;;0.40;;
38783;SDS011;24531;45.502;12.238;2023-04-16T13:19:33;1.85;;;1.23;;
38783;SDS011;24531;45.502;12.238;2023-04-16T13:21:58;0.52;;;0.40;;
38783;SDS011;24531;45.502;12.238;2023-04-16T13:24:24;3.00;;;0.70;;
38783;SDS011;24531;45.502;12.238;2023-04-16T13:26:50;0.60;;;0.50;;
38783;SDS011;24531;45.502;12.238;2023-04-16T13:29:20;1.00;;;0.63;;
38783;SDS011;24531;45.502;12.238;2023-04-16T13:31:46;1.33;;;0.57;;
38783;SDS011;24531;45.502;12.238;2023-04-16T13:34:12;1.20;;;0.55;;
38783;SDS011;24531;45.502;12.238;2023-04-16T13:36:37;0.20;;;0.20;;
38783;SDS011;24531;45.502;12.238;2023-04-16T13:39:03;0.47;;;0.40;;
38783;SDS011;24531;45.502;12.238;2023-04-16T13:41:34;4.85;;;0.90;;
38783;SDS011;24531;45.502;12.238;2023-04-16T13:44:00;0.73;;;0.40;;
38783;SDS011;24531;45.502;12.238;2023-04-16T13:46:26;5.07;;;0.60;;
38783;SDS011;24531;45.502;12.238;2023-04-16T13:48:52;1.15;;;0.50;;
38783;SDS011;24531;45.502;12.238;2023-04-16T13:51:18;1.10;;;0.77;;
38783;SDS011;24531;45.502;12.238;2023-04-16T13:53:44;1.83;;;0.50;;
38783;SDS011;24531;45.502;12.238;2023-04-16T13:56:09;0.80;;;0.60;;
38783;SDS011;24531;45.502;12.238;2023-04-16T13:58:36;0.85;;;0.40;;
38783;SDS011;24531;45.502;12.238;2023-04-16T14:01:02;0.38;;;0.30;;
38783;SDS011;24531;45.502;12.238;2023-04-16T14:03:27;0.45;;;0.35;;
38783;SDS011;24531;45.502;12.238;2023-04-16T14:05:53;0.73;;;0.55;;
38783;SDS011;24531;45.502;12.238;2023-04-16T14:08:19;0.63;;;0.50;;
38783;SDS011;24531;45.502;12.238;2023-04-16T14:10:48;1.55;;;0.30;;
38783;SDS011;24531;45.502;12.238;2023-04-16T14:13:14;2.42;;;0.40;;
38783;SDS011;24531;45.502;12.238;2023-04-16T14:15:39;1.60;;;0.50;;
38783;SDS011;24531;45.502;12.238;2023-04-16T14:18:05;1.75;;;0.68;;
38783;SDS011;24531;45.502;12.238;2023-04-16T14:20:31;0.95;;;0.50;;
38783;SDS011;24531;45.502;12.238;2023-04-16T14:22:57;1.25;;;0.30;;
38783;SDS011;24531;45.502;12.238;2023-04-16T14:25:22;0.55;;;0.30;;
38783;SDS011;24531;45.502;12.238;2023-04-16T14:27:48;2.95;;;0.90;;
38783;SDS011;24531;45.502;12.238;2023-04-16T14:30:14;0.35;;;0.35;;
38783;SDS011;24531;45.502;12.238;2023-04-16T14:32:40;2.63;;;0.60;;
38783;SDS011;24531;45.502;12.238;2023-04-16T14:35:06;2.10;;;0.55;;
38783;SDS011;24531;45.502;12.238;2023-04-16T14:37:32;0.32;;;0.32;;
38783;SDS011;24531;45.502;12.238;2023-04-16T14:40:00;0.90;;;0.52;;
38783;SDS011;24531;45.502;12.238;2023-04-16T14:42:28;1.75;;;0.50;;
38783;SDS011;24531;45.502;12.238;2023-04-16T14:44:54;0.52;;;0.52;;
38783;SDS011;24531;45.502;12.238;2023-04-16T14:47:20;1.42;;;0.85;;
38783;SDS011;24531;45.502;12.238;2023-04-16T14:49:45;1.48;;;0.40;;
38783;SDS011;24531;45.502;12.238;2023-04-16T14:52:11;0.70;;;0.40;;
38783;SDS011;24531;45.502;12.238;2023-04-16T14:54:36;0.50;;;0.50;;